createdAt,value
2018-12-30T00:00:09.974Z,13.73
2018-12-30T00:02:38.549Z,13.17
2018-12-30T00:05:07.265Z,13.17
2018-12-30T00:07:36.067Z,13.70
2018-12-30T00:10:04.987Z,15.23
2018-12-30T00:12:33.762Z,14.77
2018-12-30T00:15:02.432Z,14.93
2018-12-30T00:17:30.827Z,15.03
2018-12-30T00:20:00.236Z,16.30
2018-12-30T00:22:28.497Z,16.30
2018-12-30T00:24:56.882Z,14.70
2018-12-30T00:27:25.437Z,16.33
2018-12-30T00:29:53.765Z,15.10
2018-12-30T00:32:22.637Z,16.40
2018-12-30T00:34:51.327Z,14.83
2018-12-30T00:37:19.672Z,15.53
2018-12-30T00:39:48.191Z,14.80
2018-12-30T00:42:17.069Z,15.37
2018-12-30T00:44:46.061Z,15.40
2018-12-30T00:47:14.682Z,16.57
2018-12-30T00:49:43.603Z,15.47
2018-12-30T00:52:12.116Z,14.83
2018-12-30T00:54:40.816Z,14.67
2018-12-30T00:57:09.226Z,15.30
2018-12-30T00:59:37.549Z,13.47
2018-12-30T01:02:05.946Z,13.97
2018-12-30T01:04:34.707Z,13.47
2018-12-30T01:07:03.125Z,12.40
2018-12-30T01:09:31.652Z,12.97
2018-12-30T01:12:00.686Z,13.67
2018-12-30T01:14:29.182Z,12.50
2018-12-30T01:16:57.532Z,14.30
2018-12-30T01:19:25.996Z,13.73
2018-12-30T01:21:54.378Z,13.87
2018-12-30T01:24:22.851Z,13.23
2018-12-30T01:26:51.679Z,13.93
2018-12-30T01:29:20.039Z,13.20
2018-12-30T01:31:48.753Z,15.00
2018-12-30T01:34:17.654Z,15.57
2018-12-30T01:36:45.992Z,15.27
2018-12-30T01:39:14.979Z,15.30
2018-12-30T01:41:43.541Z,13.43
2018-12-30T01:44:11.908Z,14.83
2018-12-30T01:46:40.277Z,15.37
2018-12-30T01:49:09.099Z,14.63
2018-12-30T01:51:37.384Z,15.20
2018-12-30T01:54:05.749Z,16.77
2018-12-30T01:56:34.405Z,15.67
2018-12-30T01:59:02.924Z,15.60
2018-12-30T02:01:31.284Z,14.37
2018-12-30T02:04:00.170Z,13.60
2018-12-30T02:06:28.518Z,14.17
2018-12-30T02:08:57.049Z,13.90
2018-12-30T02:11:26.034Z,13.03
2018-12-30T02:13:54.374Z,12.37
2018-12-30T02:16:22.771Z,11.23
2018-12-30T02:18:52.091Z,12.13
2018-12-30T02:21:20.586Z,12.70
2018-12-30T02:23:48.924Z,13.70
2018-12-30T02:26:17.828Z,12.97
2018-12-30T02:28:46.331Z,14.47
2018-12-30T02:31:14.761Z,13.07
2018-12-30T02:33:43.282Z,12.70
2018-12-30T02:36:12.258Z,12.87
2018-12-30T02:38:40.591Z,11.93
2018-12-30T02:41:09.178Z,13.03
2018-12-30T02:43:40.657Z,12.90
2018-12-30T02:46:08.957Z,11.30
2018-12-30T02:48:37.699Z,12.13
2018-12-30T02:51:06.079Z,11.97
2018-12-30T02:53:34.384Z,11.03
2018-12-30T02:56:03.323Z,12.47
2018-12-30T02:58:31.657Z,12.30
2018-12-30T03:01:00.451Z,12.37
2018-12-30T03:03:29.172Z,10.50
2018-12-30T03:05:57.894Z,11.40
2018-12-30T03:08:26.285Z,10.47
2018-12-30T03:10:55.366Z,10.17
2018-12-30T03:13:23.743Z,10.87
2018-12-30T03:15:52.121Z,10.60
2018-12-30T03:18:21.138Z,11.00
2018-12-30T03:20:49.513Z,10.47
2018-12-30T03:23:17.876Z,9.80
2018-12-30T03:25:46.748Z,10.40
2018-12-30T03:28:15.057Z,10.57
2018-12-30T03:30:43.379Z,9.47
2018-12-30T03:33:12.021Z,11.63
2018-12-30T03:35:40.353Z,10.40
2018-12-30T03:38:08.993Z,11.37
2018-12-30T03:40:37.849Z,10.60
2018-12-30T03:43:06.351Z,9.67
2018-12-30T03:45:34.914Z,10.37
2018-12-30T03:48:03.377Z,10.07
2018-12-30T03:50:31.735Z,10.63
2018-12-30T03:53:00.239Z,10.97
2018-12-30T03:55:28.831Z,9.93
2018-12-30T03:57:57.187Z,10.17
2018-12-30T04:00:25.547Z,9.80
2018-12-30T04:02:54.267Z,9.60
2018-12-30T04:05:22.604Z,9.90
2018-12-30T04:07:50.904Z,11.00
2018-12-30T04:10:19.843Z,10.60
2018-12-30T04:12:48.378Z,10.63
2018-12-30T04:15:16.764Z,11.50
2018-12-30T04:17:45.580Z,10.23
2018-12-30T04:20:13.896Z,11.40
2018-12-30T04:22:42.332Z,11.73
2018-12-30T04:25:11.190Z,11.17
2018-12-30T04:27:39.522Z,11.63
2018-12-30T04:30:07.932Z,10.43
2018-12-30T04:32:36.626Z,11.40
2018-12-30T04:35:05.396Z,10.87
2018-12-30T04:37:33.714Z,10.60
2018-12-30T04:40:02.833Z,10.27
2018-12-30T04:42:31.147Z,10.50
2018-12-30T04:44:59.458Z,10.53
2018-12-30T04:47:28.263Z,10.40
2018-12-30T04:49:56.576Z,10.73
2018-12-30T04:52:25.814Z,10.33
2018-12-30T04:54:53.562Z,9.47
2018-12-30T04:57:21.870Z,9.73
2018-12-30T04:59:50.217Z,9.67
2018-12-30T05:02:18.987Z,10.60
2018-12-30T05:04:47.370Z,9.57
2018-12-30T05:07:15.768Z,10.20
2018-12-30T05:09:44.423Z,9.77
2018-12-30T05:12:12.738Z,10.23
2018-12-30T05:14:41.530Z,10.37
2018-12-30T05:17:10.636Z,9.43
2018-12-30T05:19:38.990Z,8.27
2018-12-30T05:22:07.601Z,11.23
2018-12-30T05:24:36.243Z,10.57
2018-12-30T05:27:04.620Z,9.50
2018-12-30T05:29:32.962Z,9.80
2018-12-30T05:32:01.442Z,10.00
2018-12-30T05:34:29.754Z,10.47
2018-12-30T05:36:58.199Z,12.23
2018-12-30T05:39:26.928Z,9.93
2018-12-30T05:41:55.608Z,9.77
2018-12-30T05:44:24.323Z,10.83
2018-12-30T05:46:53.009Z,10.83
2018-12-30T05:49:21.645Z,9.73
2018-12-30T05:51:50.073Z,10.40
2018-12-30T05:54:18.939Z,10.97
2018-12-30T05:56:47.319Z,10.53
2018-12-30T05:59:15.731Z,10.07
2018-12-30T06:01:44.354Z,11.23
2018-12-30T06:04:12.752Z,10.80
2018-12-30T06:06:41.230Z,12.67
2018-12-30T06:09:09.947Z,9.90
2018-12-30T06:11:38.577Z,9.53
2018-12-30T06:14:07.259Z,9.17
2018-12-30T06:16:35.998Z,7.97
2018-12-30T06:19:04.598Z,9.27
2018-12-30T06:21:32.896Z,9.40
2018-12-30T06:24:01.743Z,9.17
2018-12-30T06:26:30.111Z,7.70
2018-12-30T06:28:58.407Z,8.60
2018-12-30T06:31:27.183Z,9.13
2018-12-30T06:33:55.826Z,9.97
2018-12-30T06:36:24.246Z,8.00
2018-12-30T06:38:52.782Z,8.63
2018-12-30T06:41:21.310Z,8.97
2018-12-30T06:43:50.257Z,7.97
2018-12-30T06:46:19.294Z,7.43
2018-12-30T06:48:47.754Z,8.33
2018-12-30T06:51:16.291Z,8.23
2018-12-30T06:53:44.911Z,8.67
2018-12-30T06:56:13.203Z,10.07
2018-12-30T06:58:41.536Z,8.97
2018-12-30T07:01:10.325Z,9.03
2018-12-30T07:03:38.652Z,9.07
2018-12-30T07:06:06.942Z,7.83
2018-12-30T07:08:35.653Z,7.73
2018-12-30T07:11:04.016Z,8.37
2018-12-30T07:13:32.414Z,7.47
2018-12-30T07:16:01.113Z,7.83
2018-12-30T07:18:30.106Z,8.03
2018-12-30T07:20:58.683Z,8.27
2018-12-30T07:23:27.417Z,8.00
2018-12-30T07:25:55.741Z,7.53
2018-12-30T07:28:24.089Z,8.03
2018-12-30T07:30:53.326Z,7.90
2018-12-30T07:33:23.109Z,7.97
2018-12-30T07:35:50.052Z,8.30
2018-12-30T07:38:18.909Z,7.83
2018-12-30T07:40:47.232Z,8.13
2018-12-30T07:43:15.627Z,7.20
2018-12-30T07:45:44.539Z,7.70
2018-12-30T07:48:12.998Z,7.97
2018-12-30T07:50:41.371Z,8.10
2018-12-30T07:53:13.665Z,8.20
2018-12-30T07:55:38.539Z,8.00
2018-12-30T07:58:06.964Z,8.60
2018-12-30T08:00:35.374Z,9.00
2018-12-30T08:03:03.786Z,9.90
2018-12-30T08:05:32.186Z,8.90
2018-12-30T08:08:00.977Z,7.73
2018-12-30T08:10:29.468Z,9.07
2018-12-30T08:12:57.766Z,9.67
2018-12-30T08:15:26.418Z,9.73
2018-12-30T08:17:54.731Z,9.40
2018-12-30T08:20:23.173Z,9.70
2018-12-30T08:22:52.037Z,9.17
2018-12-30T08:25:20.461Z,9.27
2018-12-30T08:27:48.789Z,9.20
2018-12-30T08:30:17.460Z,7.83
2018-12-30T08:32:45.895Z,8.20
2018-12-30T08:35:14.420Z,7.70
2018-12-30T08:37:43.350Z,9.40
2018-12-30T08:40:12.035Z,8.63
2018-12-30T08:42:40.393Z,7.03
2018-12-30T08:45:09.244Z,8.37
2018-12-30T08:47:38.049Z,8.60
2018-12-30T08:50:06.800Z,8.93
2018-12-30T08:52:35.303Z,8.40
2018-12-30T08:55:03.629Z,8.00
2018-12-30T08:57:32.218Z,8.00
2018-12-30T09:00:02.045Z,7.30
2018-12-30T09:02:29.504Z,7.50
2018-12-30T09:04:57.840Z,7.40
2018-12-30T09:07:26.503Z,7.13
2018-12-30T09:09:55.021Z,9.13
2018-12-30T09:12:23.527Z,10.67
2018-12-30T09:14:52.131Z,11.00
2018-12-30T09:17:20.769Z,11.63
2018-12-30T09:19:49.341Z,10.87
2018-12-30T09:22:18.143Z,10.07
2018-12-30T09:24:46.494Z,10.87
2018-12-30T09:27:14.810Z,9.40
2018-12-30T09:29:43.439Z,6.37
2018-12-30T09:32:11.734Z,5.93
2018-12-30T09:34:40.328Z,6.70
2018-12-30T09:37:09.335Z,6.63
2018-12-30T09:39:37.814Z,7.17
2018-12-30T09:42:06.157Z,5.87
2018-12-30T09:44:35.076Z,5.43
2018-12-30T09:47:03.610Z,5.27
2018-12-30T09:49:32.408Z,4.93
2018-12-30T09:52:01.435Z,5.20
2018-12-30T09:54:29.777Z,5.00
2018-12-30T09:56:58.130Z,5.33
2018-12-30T09:59:26.729Z,4.60
2018-12-30T10:01:55.011Z,5.00
2018-12-30T10:04:23.894Z,4.53
2018-12-30T10:06:52.931Z,5.00
2018-12-30T10:09:21.473Z,4.37
2018-12-30T10:11:49.824Z,4.97
2018-12-30T10:14:18.985Z,4.60
2018-12-30T10:16:47.552Z,4.80
2018-12-30T10:19:15.857Z,4.60
2018-12-30T10:21:44.427Z,4.23
2018-12-30T10:24:12.765Z,4.03
2018-12-30T10:26:41.192Z,3.93
2018-12-30T10:29:09.715Z,4.10
2018-12-30T10:31:38.180Z,4.10
2018-12-30T10:34:06.571Z,3.70
2018-12-30T10:36:35.162Z,3.83
2018-12-30T10:39:04.300Z,3.90
2018-12-30T10:41:32.617Z,3.47
2018-12-30T10:44:01.233Z,3.70
2018-12-30T10:46:29.550Z,3.70
2018-12-30T10:48:58.014Z,3.57
2018-12-30T10:51:26.965Z,3.10
2018-12-30T10:54:00.601Z,3.00
2018-12-30T10:56:24.042Z,3.37
2018-12-30T10:58:52.484Z,2.93
2018-12-30T11:01:20.924Z,3.60
2018-12-30T11:03:49.254Z,3.07
2018-12-30T11:06:17.987Z,3.30
2018-12-30T11:08:46.515Z,3.73
2018-12-30T11:11:15.046Z,3.50
2018-12-30T11:13:43.574Z,3.23
2018-12-30T11:16:11.894Z,3.83
2018-12-30T11:18:40.487Z,3.57
2018-12-30T11:21:09.324Z,3.90
2018-12-30T11:23:37.957Z,3.33
2018-12-30T11:26:06.543Z,3.50
2018-12-30T11:28:35.231Z,3.83
2018-12-30T11:31:03.539Z,3.00
2018-12-30T11:33:31.823Z,2.80
2018-12-30T11:36:00.669Z,2.63
2018-12-30T11:38:29.008Z,2.40
2018-12-30T11:40:57.502Z,2.43
2018-12-30T11:43:26.033Z,2.53
2018-12-30T11:45:54.663Z,2.40
2018-12-30T11:48:23.201Z,2.73
2018-12-30T11:50:51.725Z,1.77
2018-12-30T11:53:20.322Z,2.53
2018-12-30T11:55:48.732Z,2.70
2018-12-30T11:58:17.444Z,2.50
2018-12-30T12:00:45.976Z,2.40
2018-12-30T12:03:14.318Z,2.63
2018-12-30T12:05:42.738Z,2.97
2018-12-30T12:08:11.238Z,2.70
2018-12-30T12:10:39.593Z,2.50
2018-12-30T12:13:07.968Z,3.00
2018-12-30T12:15:38.297Z,3.40
2018-12-30T12:18:04.998Z,2.33
2018-12-30T12:20:33.771Z,2.77
2018-12-30T12:23:02.081Z,3.53
2018-12-30T12:25:30.428Z,3.03
2018-12-30T12:27:59.519Z,2.23
2018-12-30T12:30:27.874Z,2.50
2018-12-30T12:32:56.187Z,2.43
2018-12-30T12:35:24.641Z,2.60
2018-12-30T12:37:53.186Z,2.37
2018-12-30T12:40:21.535Z,2.50
2018-12-30T12:42:50.223Z,2.50
2018-12-30T12:45:18.611Z,2.47
2018-12-30T12:47:46.908Z,2.57
2018-12-30T12:50:15.538Z,2.20
2018-12-30T12:52:43.874Z,3.10
2018-12-30T12:55:12.685Z,2.47
2018-12-30T12:57:41.429Z,2.40
2018-12-30T13:00:11.652Z,2.10
2018-12-30T13:02:40.140Z,2.53
2018-12-30T13:05:09.016Z,2.47
2018-12-30T13:07:37.433Z,3.10
2018-12-30T13:10:07.951Z,2.83
2018-12-30T13:12:36.466Z,2.77
2018-12-30T13:15:05.599Z,2.70
2018-12-30T13:17:34.694Z,2.13
2018-12-30T13:20:03.277Z,2.53
2018-12-30T13:22:31.826Z,2.30
2018-12-30T13:25:00.246Z,2.37
2018-12-30T13:27:28.566Z,2.00
2018-12-30T13:29:56.910Z,1.90
2018-12-30T13:32:26.216Z,2.10
2018-12-30T13:34:54.542Z,2.23
2018-12-30T13:37:22.923Z,2.33
2018-12-30T13:39:52.043Z,2.10
2018-12-30T13:42:20.701Z,2.20
2018-12-30T13:44:49.002Z,2.13
2018-12-30T13:47:17.551Z,2.20
2018-12-30T13:49:45.957Z,2.70
2018-12-30T13:52:14.614Z,2.50
2018-12-30T13:54:47.722Z,2.53
2018-12-30T13:57:11.522Z,2.90
2018-12-30T13:59:40.023Z,2.70
2018-12-30T14:02:08.417Z,2.57
2018-12-30T14:04:36.791Z,2.60
2018-12-30T14:07:05.374Z,3.50
2018-12-30T14:09:33.741Z,3.00
2018-12-30T14:12:02.223Z,2.90
2018-12-30T14:14:30.654Z,2.87
2018-12-30T14:16:59.058Z,2.90
2018-12-30T14:19:27.422Z,3.00
2018-12-30T14:21:55.726Z,2.70
2018-12-30T14:24:24.531Z,2.83
2018-12-30T14:26:59.529Z,2.73
2018-12-30T14:29:21.228Z,3.33
2018-12-30T14:31:49.575Z,3.47
2018-12-30T14:34:17.928Z,3.30
2018-12-30T14:36:46.528Z,3.70
2018-12-30T14:39:14.825Z,4.33
2018-12-30T14:41:43.732Z,4.03
2018-12-30T14:44:12.075Z,4.33
2018-12-30T14:46:40.384Z,4.73
2018-12-30T14:49:08.800Z,4.90
2018-12-30T14:51:37.240Z,4.60
2018-12-30T14:54:05.600Z,4.60
2018-12-30T14:56:34.301Z,4.93
2018-12-30T14:59:03.014Z,5.30
2018-12-30T15:01:31.574Z,5.40
2018-12-30T15:03:59.901Z,5.37
2018-12-30T15:06:28.314Z,5.33
2018-12-30T15:08:57.110Z,5.30
2018-12-30T15:11:25.446Z,5.17
2018-12-30T15:13:54.048Z,6.10
2018-12-30T15:16:22.688Z,5.67
2018-12-30T15:18:50.988Z,6.80
2018-12-30T15:21:19.472Z,7.60
2018-12-30T15:23:47.790Z,7.90
2018-12-30T15:26:16.164Z,8.57
2018-12-30T15:28:44.544Z,7.83
2018-12-30T15:31:13.035Z,7.07
2018-12-30T15:33:41.371Z,6.73
2018-12-30T15:36:10.211Z,6.30
2018-12-30T15:38:38.567Z,6.63
2018-12-30T15:41:06.882Z,5.13
2018-12-30T15:43:35.212Z,4.50
2018-12-30T15:46:03.646Z,5.53
2018-12-30T15:48:31.952Z,4.97
2018-12-30T15:51:00.283Z,4.97
2018-12-30T15:53:28.708Z,5.30
2018-12-30T15:55:57.020Z,4.03
2018-12-30T15:58:25.519Z,3.43
2018-12-30T16:00:54.036Z,3.20
2018-12-30T16:03:22.393Z,2.90
2018-12-30T16:05:57.438Z,3.27
2018-12-30T16:08:19.132Z,2.80
2018-12-30T16:10:47.779Z,2.90
2018-12-30T16:13:16.147Z,3.23
2018-12-30T16:15:44.672Z,3.00
2018-12-30T16:18:13.261Z,3.17
2018-12-30T16:20:41.589Z,3.20
2018-12-30T16:23:09.978Z,3.23
2018-12-30T16:25:38.284Z,2.80
2018-12-30T16:28:06.653Z,3.00
2018-12-30T16:30:35.044Z,3.20
2018-12-30T16:33:03.451Z,2.73
2018-12-30T16:35:31.761Z,2.50
2018-12-30T16:38:00.146Z,2.70
2018-12-30T16:40:28.637Z,3.00
2018-12-30T16:42:56.951Z,2.53
2018-12-30T16:45:25.375Z,3.13
2018-12-30T16:47:53.906Z,3.00
2018-12-30T16:50:22.219Z,3.07
2018-12-30T16:52:51.085Z,3.10
2018-12-30T16:55:19.497Z,2.50
2018-12-30T16:57:47.830Z,3.10
2018-12-30T17:00:16.428Z,2.80
2018-12-30T17:02:45.062Z,2.63
2018-12-30T17:05:13.497Z,2.30
2018-12-30T17:07:41.999Z,2.50
2018-12-30T17:10:10.629Z,2.50
2018-12-30T17:12:39.679Z,2.23
2018-12-30T17:15:08.619Z,2.30
2018-12-30T17:17:37.004Z,2.53
2018-12-30T17:20:05.445Z,2.77
2018-12-30T17:22:33.818Z,3.07
2018-12-30T17:25:02.485Z,3.27
2018-12-30T17:27:30.829Z,3.00
2018-12-30T17:29:59.824Z,3.40
2018-12-30T17:32:28.199Z,3.53
2018-12-30T17:34:56.755Z,2.73
2018-12-30T17:37:25.053Z,3.40
2018-12-30T17:39:53.450Z,3.40
2018-12-30T17:42:21.773Z,2.80
2018-12-30T17:44:50.092Z,2.80
2018-12-30T17:47:18.546Z,2.77
2018-12-30T17:49:46.848Z,2.53
2018-12-30T17:52:15.159Z,2.87
2018-12-30T17:54:43.492Z,2.30
2018-12-30T17:57:11.958Z,2.90
2018-12-30T17:59:40.262Z,2.50
2018-12-30T18:02:08.619Z,2.60
2018-12-30T18:04:37.240Z,3.20
2018-12-30T18:07:05.611Z,3.03
2018-12-30T18:09:34.214Z,3.43
2018-12-30T18:12:02.526Z,2.50
2018-12-30T18:14:31.265Z,2.60
2018-12-30T18:16:59.646Z,2.60
2018-12-30T18:19:28.276Z,2.90
2018-12-30T18:21:56.872Z,2.70
2018-12-30T18:24:25.181Z,2.50
2018-12-30T18:26:53.767Z,2.93
2018-12-30T18:29:22.655Z,2.90
2018-12-30T18:31:50.973Z,2.50
2018-12-30T18:34:19.715Z,2.50
2018-12-30T18:36:48.347Z,2.50
2018-12-30T18:39:16.703Z,2.83
2018-12-30T18:41:45.014Z,2.80
2018-12-30T18:44:13.421Z,2.87
2018-12-30T18:46:41.920Z,2.97
2018-12-30T18:49:10.213Z,2.37
2018-12-30T18:51:38.690Z,2.53
2018-12-30T18:54:07.410Z,2.80
2018-12-30T18:56:35.769Z,2.63
2018-12-30T18:59:04.416Z,2.57
2018-12-30T19:01:32.804Z,2.40
2018-12-30T19:04:01.234Z,2.57
2018-12-30T19:06:30.149Z,2.30
2018-12-30T19:08:58.556Z,2.40
2018-12-30T19:11:26.991Z,2.37
2018-12-30T19:13:55.269Z,2.50
2018-12-30T19:16:24.067Z,2.27
2018-12-30T19:18:52.402Z,3.00
2018-12-30T19:21:21.041Z,2.80
2018-12-30T19:23:49.415Z,2.40
2018-12-30T19:26:17.785Z,2.10
2018-12-30T19:28:46.206Z,2.43
2018-12-30T19:31:14.659Z,2.43
2018-12-30T19:33:43.166Z,2.90
2018-12-30T19:36:11.720Z,2.83
2018-12-30T19:38:40.620Z,2.50
2018-12-30T19:41:09.213Z,2.00
2018-12-30T19:43:37.554Z,2.47
2018-12-30T19:46:06.376Z,2.60
2018-12-30T19:48:34.654Z,2.20
2018-12-30T19:51:02.957Z,2.10
2018-12-30T19:53:31.299Z,2.37
2018-12-30T19:55:59.620Z,2.70
2018-12-30T19:58:27.897Z,2.47
2018-12-30T20:00:56.396Z,2.00
2018-12-30T20:03:24.713Z,2.03
2018-12-30T20:05:52.990Z,2.40
2018-12-30T20:08:21.716Z,1.80
2018-12-30T20:10:50.052Z,2.10
2018-12-30T20:13:18.585Z,1.97
2018-12-30T20:15:46.896Z,2.00
2018-12-30T20:18:15.792Z,2.23
2018-12-30T20:20:44.157Z,2.13
2018-12-30T20:23:13.436Z,1.93
2018-12-30T20:25:41.540Z,2.37
2018-12-30T20:28:09.858Z,1.80
2018-12-30T20:30:38.225Z,1.87
2018-12-30T20:33:06.863Z,2.00
2018-12-30T20:35:35.450Z,2.10
2018-12-30T20:38:03.772Z,2.00
2018-12-30T20:40:32.681Z,1.63
2018-12-30T20:43:00.966Z,2.20
2018-12-30T20:45:29.288Z,1.60
2018-12-30T20:47:57.589Z,1.70
2018-12-30T20:50:25.879Z,1.73
2018-12-30T20:52:54.676Z,1.50
2018-12-30T20:55:22.991Z,1.60
2018-12-30T20:57:51.269Z,1.73
2018-12-30T21:00:19.798Z,1.60
2018-12-30T21:02:48.414Z,1.37
2018-12-30T21:05:16.794Z,1.60
2018-12-30T21:07:45.382Z,1.90
2018-12-30T21:10:14.300Z,2.10
2018-12-30T21:12:42.584Z,2.30
2018-12-30T21:15:11.143Z,2.33
2018-12-30T21:17:39.443Z,2.17
2018-12-30T21:20:08.494Z,2.40
2018-12-30T21:22:36.791Z,2.17
2018-12-30T21:25:05.519Z,2.20
2018-12-30T21:27:34.139Z,2.33
2018-12-30T21:30:02.809Z,2.43
2018-12-30T21:32:31.109Z,1.70
2018-12-30T21:34:59.488Z,2.00
2018-12-30T21:37:27.800Z,2.03
2018-12-30T21:39:56.220Z,1.83
2018-12-30T21:42:24.767Z,1.90
2018-12-30T21:44:53.298Z,1.93
2018-12-30T21:47:21.602Z,1.77
2018-12-30T21:49:49.928Z,1.97
2018-12-30T21:52:18.230Z,1.80
2018-12-30T21:54:46.968Z,2.10
2018-12-30T21:57:15.543Z,1.80
2018-12-30T21:59:43.847Z,1.57
2018-12-30T22:02:12.187Z,1.87
2018-12-30T22:04:40.728Z,1.90
2018-12-30T22:07:09.088Z,2.20
2018-12-30T22:09:37.509Z,1.50
2018-12-30T22:12:06.242Z,1.90
2018-12-30T22:14:34.592Z,2.60
2018-12-30T22:17:02.956Z,2.10
2018-12-30T22:19:31.272Z,1.70
2018-12-30T22:21:59.928Z,1.80
2018-12-30T22:24:28.281Z,1.80
2018-12-30T22:26:56.624Z,1.60
2018-12-30T22:29:24.992Z,2.00
2018-12-30T22:31:53.358Z,1.93
2018-12-30T22:34:21.846Z,1.93
2018-12-30T22:36:50.286Z,2.17
2018-12-30T22:39:19.345Z,2.10
2018-12-30T22:41:47.101Z,1.60
2018-12-30T22:44:15.429Z,1.50
2018-12-30T22:46:43.771Z,1.53
2018-12-30T22:49:12.049Z,1.83
2018-12-30T22:51:40.616Z,1.80
2018-12-30T22:54:08.945Z,1.87
2018-12-30T22:56:37.242Z,2.10
2018-12-30T22:59:05.605Z,2.17
2018-12-30T23:01:38.118Z,1.37
2018-12-30T23:04:06.814Z,1.40
2018-12-30T23:06:35.174Z,1.87
2018-12-30T23:09:04.242Z,1.47
2018-12-30T23:11:32.634Z,1.70
2018-12-30T23:14:01.360Z,1.80
2018-12-30T23:16:29.698Z,1.67
2018-12-30T23:18:58.288Z,1.60
2018-12-30T23:21:26.648Z,1.40
2018-12-30T23:23:55.358Z,1.70
2018-12-30T23:26:23.682Z,1.20
2018-12-30T23:28:52.425Z,1.87
2018-12-30T23:31:20.798Z,1.20
2018-12-30T23:33:49.147Z,1.40
2018-12-30T23:36:17.825Z,1.40
2018-12-30T23:38:46.176Z,1.33
2018-12-30T23:41:14.866Z,1.30
2018-12-30T23:43:43.244Z,1.33
2018-12-30T23:46:11.762Z,1.67
2018-12-30T23:48:40.061Z,1.60
2018-12-30T23:51:08.630Z,2.07
2018-12-30T23:53:36.940Z,1.70
2018-12-30T23:56:05.261Z,1.50
2018-12-30T23:58:33.620Z,1.80
